createdAt,value
2022-10-23T00:00:41.045Z,18.60
2022-10-23T00:03:28.818Z,18.60
2022-10-23T00:06:16.720Z,18.60
2022-10-23T00:09:06.690Z,18.60
2022-10-23T00:11:54.819Z,18.50
2022-10-23T00:14:43.527Z,18.50
2022-10-23T00:17:32.784Z,18.50
2022-10-23T00:20:21.924Z,18.50
2022-10-23T00:23:09.470Z,18.50
2022-10-23T00:25:57.268Z,18.50
2022-10-23T00:28:45.647Z,18.40
2022-10-23T00:31:34.777Z,18.40
2022-10-23T00:34:22.598Z,18.40
2022-10-23T00:37:10.194Z,18.30
2022-10-23T00:39:57.742Z,18.30
2022-10-23T00:42:45.595Z,18.30
2022-10-23T00:45:34.890Z,18.30
2022-10-23T00:48:24.519Z,18.30
2022-10-23T00:51:11.905Z,18.20
2022-10-23T00:54:22.865Z,18.20
2022-10-23T00:57:15.582Z,18.20
2022-10-23T01:00:03.160Z,18.20
2022-10-23T01:02:51.265Z,18.20
2022-10-23T01:05:49.597Z,18.10
2022-10-23T01:08:43.690Z,18.10
2022-10-23T01:11:40.752Z,18.10
2022-10-23T01:14:34.415Z,18.10
2022-10-23T01:17:30.252Z,18.10
2022-10-23T01:20:47.844Z,18.10
2022-10-23T01:24:07.225Z,18.00
2022-10-23T01:27:21.844Z,18.00
2022-10-23T01:30:12.426Z,18.00
2022-10-23T01:33:08.351Z,18.00
2022-10-23T01:36:08.489Z,18.00
2022-10-23T01:39:01.343Z,18.00
2022-10-23T01:41:54.592Z,18.00
2022-10-23T01:44:57.058Z,18.00
2022-10-23T01:47:46.462Z,18.00
2022-10-23T01:50:38.432Z,18.00
2022-10-23T01:53:30.764Z,18.00
2022-10-23T01:56:24.254Z,18.00
2022-10-23T01:59:17.563Z,17.90
2022-10-23T02:02:10.395Z,17.90
2022-10-23T02:05:04.952Z,17.90
2022-10-23T02:07:53.673Z,17.90
2022-10-23T02:10:50.736Z,17.90
2022-10-23T02:13:46.322Z,17.90
2022-10-23T02:16:42.345Z,17.90
2022-10-23T02:19:39.057Z,17.90
2022-10-23T02:22:39.605Z,17.90
2022-10-23T02:25:34.742Z,17.90
2022-10-23T02:28:30.121Z,17.90
2022-10-23T02:31:24.890Z,17.80
2022-10-23T02:34:14.366Z,17.90
2022-10-23T02:37:04.193Z,17.80
2022-10-23T02:39:52.118Z,17.80
2022-10-23T02:42:49.105Z,17.80
2022-10-23T02:45:42.808Z,17.80
2022-10-23T02:48:40.405Z,17.80
2022-10-23T02:51:40.169Z,17.80
2022-10-23T02:54:58.779Z,17.70
2022-10-23T02:57:52.618Z,17.70
2022-10-23T03:00:47.721Z,17.70
2022-10-23T03:03:42.236Z,17.70
2022-10-23T03:06:33.924Z,17.70
2022-10-23T03:09:21.965Z,17.70
2022-10-23T03:12:12.105Z,17.70
2022-10-23T03:15:00.195Z,17.60
2022-10-23T03:17:47.958Z,17.60
2022-10-23T03:20:40.458Z,17.60
2022-10-23T03:23:28.312Z,17.60
2022-10-23T03:26:19.002Z,17.60
2022-10-23T03:29:14.396Z,17.60
2022-10-23T03:32:06.907Z,17.60
2022-10-23T03:34:54.417Z,17.60
2022-10-23T03:37:44.288Z,17.60
2022-10-23T03:40:33.535Z,17.60
2022-10-23T03:43:21.786Z,17.50
2022-10-23T03:46:12.986Z,17.50
2022-10-23T03:49:00.501Z,17.50
2022-10-23T03:55:03.669Z,17.50
2022-10-23T03:57:58.024Z,17.50
2022-10-23T04:00:46.602Z,17.50
2022-10-23T04:03:35.603Z,17.50
2022-10-23T04:06:23.154Z,17.50
2022-10-23T04:09:15.972Z,17.40
2022-10-23T04:12:05.579Z,17.40
2022-10-23T04:14:53.516Z,17.40
2022-10-23T04:18:01.346Z,17.40
2022-10-23T04:21:11.095Z,17.40
2022-10-23T04:24:48.212Z,17.40
2022-10-23T04:28:05.225Z,17.40
2022-10-23T04:31:08.961Z,17.40
2022-10-23T04:35:05.925Z,17.40
2022-10-23T04:37:54.836Z,17.40
2022-10-23T04:40:47.834Z,17.30
2022-10-23T04:43:55.487Z,17.30
2022-10-23T04:46:43.275Z,17.30
2022-10-23T04:49:31.789Z,17.30
2022-10-23T04:52:38.117Z,17.30
2022-10-23T04:55:51.822Z,17.30
2022-10-23T04:58:45.773Z,17.30
2022-10-23T05:01:33.683Z,17.30
2022-10-23T05:04:24.127Z,17.20
2022-10-23T05:07:34.836Z,17.20
2022-10-23T05:10:41.825Z,17.20
2022-10-23T05:13:33.533Z,17.20
2022-10-23T05:16:37.127Z,17.20
2022-10-23T05:19:31.632Z,17.20
2022-10-23T05:22:21.035Z,17.20
2022-10-23T05:25:14.737Z,17.20
2022-10-23T05:28:08.562Z,17.20
2022-10-23T05:31:02.110Z,17.20
2022-10-23T05:33:50.310Z,17.20
2022-10-23T05:36:40.772Z,17.20
2022-10-23T05:39:28.358Z,17.10
2022-10-23T05:42:15.965Z,17.10
2022-10-23T05:45:03.562Z,17.20
2022-10-23T05:48:34.228Z,17.10
2022-10-23T05:51:42.607Z,17.10
2022-10-23T05:55:06.174Z,17.10
2022-10-23T05:58:09.247Z,17.10
2022-10-23T06:01:30.659Z,17.10
2022-10-23T06:04:09.397Z,17.10
2022-10-23T06:07:06.719Z,17.10
2022-10-23T06:09:35.869Z,17.10
2022-10-23T06:12:05.916Z,17.10
2022-10-23T06:14:35.396Z,17.10
2022-10-23T06:17:04.800Z,17.10
2022-10-23T06:19:37.744Z,17.10
2022-10-23T06:22:07.330Z,17.10
2022-10-23T06:24:48.530Z,17.10
2022-10-23T06:27:25.411Z,17.10
2022-10-23T06:29:56.639Z,17.10
2022-10-23T06:32:25.873Z,17.10
2022-10-23T06:35:44.414Z,17.10
2022-10-23T06:41:50.395Z,17.10
2022-10-23T06:44:39.466Z,17.20
2022-10-23T06:47:31.288Z,17.20
2022-10-23T06:50:32.415Z,17.20
2022-10-23T06:53:08.417Z,17.20
2022-10-23T06:55:41.052Z,17.20
2022-10-23T06:58:11.711Z,17.20
2022-10-23T07:00:57.311Z,17.20
2022-10-23T07:03:26.607Z,17.20
2022-10-23T07:05:57.218Z,17.20
2022-10-23T07:08:26.293Z,17.20
2022-10-23T07:10:58.065Z,17.30
2022-10-23T07:13:27.209Z,17.30
2022-10-23T07:16:00.950Z,17.30
2022-10-23T07:18:30.989Z,17.30
2022-10-23T07:21:34.713Z,17.30
2022-10-23T07:24:26.597Z,17.40
2022-10-23T07:26:58.337Z,17.40
2022-10-23T07:29:29.889Z,17.40
2022-10-23T07:32:00.976Z,17.50
2022-10-23T07:34:52.718Z,17.50
2022-10-23T07:37:30.396Z,17.50
2022-10-23T07:40:02.415Z,17.60
2022-10-23T07:42:34.695Z,17.60
2022-10-23T07:45:06.451Z,17.60
2022-10-23T07:47:36.407Z,17.60
2022-10-23T07:50:07.174Z,17.70
2022-10-23T07:52:37.972Z,17.70
2022-10-23T07:55:15.716Z,17.80
2022-10-23T07:58:07.614Z,17.80
2022-10-23T08:00:52.079Z,17.80
2022-10-23T08:03:30.621Z,17.90
2022-10-23T08:06:01.482Z,17.90
2022-10-23T08:08:32.677Z,17.90
2022-10-23T08:11:05.420Z,17.90
2022-10-23T08:13:45.615Z,18.00
2022-10-23T08:16:14.661Z,18.00
2022-10-23T08:19:03.102Z,18.10
2022-10-23T08:21:33.350Z,18.10
2022-10-23T08:24:05.314Z,18.20
2022-10-23T08:26:34.815Z,18.30
2022-10-23T08:29:04.153Z,18.30
2022-10-23T08:40:34.631Z,18.60
2022-10-23T08:43:42.613Z,18.70
2022-10-23T08:46:32.867Z,18.80
2022-10-23T08:49:36.151Z,18.90
2022-10-23T08:52:24.250Z,19.10
2022-10-23T08:55:13.894Z,19.20
2022-10-23T08:57:53.063Z,19.40
2022-10-23T09:00:22.756Z,19.50
2022-10-23T09:02:57.369Z,19.70
2022-10-23T09:05:33.564Z,19.90
2022-10-23T09:16:48.825Z,20.50
2022-10-23T09:19:37.435Z,20.80
2022-10-23T09:23:06.871Z,20.90
2022-10-23T09:25:40.119Z,21.20
2022-10-23T09:28:20.840Z,21.30
2022-10-23T09:30:52.081Z,21.50
2022-10-23T09:33:25.119Z,21.60
2022-10-23T09:35:58.464Z,21.70
2022-10-23T09:38:31.506Z,21.80
2022-10-23T09:41:04.726Z,22.00
2022-10-23T09:43:35.365Z,22.10
2022-10-23T09:46:09.720Z,22.20
2022-10-23T09:48:42.336Z,22.40
2022-10-23T09:51:20.040Z,22.60
2022-10-23T09:53:53.776Z,22.80
2022-10-23T09:56:29.465Z,22.90
2022-10-23T09:59:02.777Z,23.10
2022-10-23T10:01:36.186Z,23.20
2022-10-23T10:04:37.698Z,23.40
2022-10-23T10:07:19.915Z,23.50
2022-10-23T10:09:49.726Z,23.60
2022-10-23T10:12:39.952Z,23.60
2022-10-23T10:15:21.930Z,23.70
2022-10-23T10:18:04.305Z,23.70
2022-10-23T10:20:50.118Z,23.70
2022-10-23T10:23:30.490Z,23.70
2022-10-23T10:26:12.404Z,23.70
2022-10-23T10:29:01.474Z,23.80
2022-10-23T10:31:44.011Z,23.80
2022-10-23T10:34:19.850Z,23.80
2022-10-23T10:36:54.638Z,23.80
2022-10-23T10:39:39.766Z,23.80
2022-10-23T10:42:32.449Z,23.80
2022-10-23T10:45:18.618Z,23.80
2022-10-23T10:48:05.022Z,23.80
2022-10-23T10:50:59.906Z,23.80
2022-10-23T10:54:01.147Z,23.80
2022-10-23T10:56:33.223Z,23.80
2022-10-23T10:59:06.989Z,23.80
2022-10-23T11:01:42.914Z,23.80
2022-10-23T11:04:24.844Z,23.70
2022-10-23T11:06:55.358Z,23.70
2022-10-23T11:09:28.563Z,23.70
2022-10-23T11:11:59.571Z,23.70
2022-10-23T11:14:33.064Z,23.70
2022-10-23T11:17:10.325Z,23.70
2022-10-23T11:19:47.164Z,23.70
2022-10-23T11:22:27.398Z,23.70
2022-10-23T11:25:55.123Z,23.80
2022-10-23T11:28:37.789Z,23.80
2022-10-23T11:31:19.929Z,23.80
2022-10-23T11:34:13.485Z,23.90
2022-10-23T11:36:52.106Z,23.90
2022-10-23T11:39:25.041Z,24.10
2022-10-23T11:41:59.162Z,24.10
2022-10-23T11:44:45.178Z,24.20
2022-10-23T11:47:40.541Z,24.30
2022-10-23T11:50:26.907Z,24.40
2022-10-23T11:53:14.282Z,24.40
2022-10-23T11:56:06.796Z,24.50
2022-10-23T11:58:48.563Z,24.50
2022-10-23T12:01:28.547Z,24.50
2022-10-23T12:04:02.302Z,24.50
2022-10-23T12:06:40.635Z,24.50
2022-10-23T12:09:30.800Z,24.50
2022-10-23T12:12:30.810Z,24.50
2022-10-23T12:15:20.866Z,24.50
2022-10-23T12:17:51.701Z,24.50
2022-10-23T12:20:37.932Z,24.60
2022-10-23T12:23:43.237Z,24.60
2022-10-23T12:26:34.496Z,24.60
2022-10-23T12:29:16.540Z,24.60
2022-10-23T12:31:55.596Z,24.60
2022-10-23T12:34:43.284Z,24.60
2022-10-23T12:37:51.592Z,24.60
2022-10-23T12:40:20.754Z,24.60
2022-10-23T12:42:57.655Z,24.60
2022-10-23T12:45:29.565Z,24.60
2022-10-23T12:47:58.629Z,24.60
2022-10-23T12:50:31.188Z,24.50
2022-10-23T12:53:03.059Z,24.50
2022-10-23T12:55:50.008Z,24.60
2022-10-23T12:58:24.436Z,24.50
2022-10-23T13:01:00.458Z,24.50
2022-10-23T13:03:32.235Z,24.50
2022-10-23T13:06:03.709Z,24.50
2022-10-23T13:08:41.671Z,24.50
2022-10-23T13:11:32.164Z,24.50
2022-10-23T13:14:13.195Z,24.50
2022-10-23T13:16:42.231Z,24.50
2022-10-23T13:19:26.980Z,24.50
2022-10-23T13:21:56.198Z,24.50
2022-10-23T13:24:29.084Z,24.50
2022-10-23T13:26:59.031Z,24.50
2022-10-23T13:29:32.418Z,24.50
2022-10-23T13:32:11.886Z,24.50
2022-10-23T13:34:40.948Z,24.50
2022-10-23T13:37:25.426Z,24.50
2022-10-23T13:40:02.476Z,24.50
2022-10-23T13:42:31.906Z,24.50
2022-10-23T13:45:02.306Z,24.50
2022-10-23T13:47:31.420Z,24.50
2022-10-23T13:50:00.387Z,24.40
2022-10-23T13:52:29.507Z,24.40
2022-10-23T13:54:58.469Z,24.40
2022-10-23T13:57:27.762Z,24.40
2022-10-23T13:59:56.772Z,24.40
2022-10-23T14:02:27.307Z,24.40
2022-10-23T14:04:56.376Z,24.40
2022-10-23T14:07:25.426Z,24.40
2022-10-23T14:09:54.447Z,24.40
2022-10-23T14:12:23.550Z,24.40
2022-10-23T14:14:53.030Z,24.40
2022-10-23T14:17:22.487Z,24.30
2022-10-23T14:19:52.961Z,24.30
2022-10-23T14:22:22.029Z,24.30
2022-10-23T14:24:51.651Z,24.30
2022-10-23T14:27:20.689Z,24.30
2022-10-23T14:29:49.684Z,24.30
2022-10-23T14:32:18.683Z,24.30
2022-10-23T14:34:54.276Z,24.20
2022-10-23T14:37:23.385Z,24.20
2022-10-23T14:39:52.364Z,24.20
2022-10-23T14:42:21.506Z,24.20
2022-10-23T14:44:51.084Z,24.20
2022-10-23T14:47:20.668Z,24.20
2022-10-23T14:52:33.606Z,24.10
2022-10-23T14:55:03.369Z,24.10
2022-10-23T14:57:33.154Z,24.10
2022-10-23T15:00:03.170Z,24.10
2022-10-23T15:02:33.241Z,24.10
2022-10-23T15:05:03.119Z,24.10
2022-10-23T15:07:34.493Z,24.10
2022-10-23T15:10:05.448Z,24.10
2022-10-23T15:12:35.748Z,24.00
2022-10-23T15:15:08.997Z,24.00
2022-10-23T15:17:39.242Z,24.00
2022-10-23T15:20:09.533Z,24.00
2022-10-23T15:22:39.984Z,24.00
2022-10-23T15:25:13.126Z,23.90
2022-10-23T15:27:45.281Z,24.00
2022-10-23T15:30:15.263Z,23.90
2022-10-23T15:32:44.554Z,23.90
2022-10-23T15:35:13.988Z,23.90
2022-10-23T15:37:45.312Z,23.90
2022-10-23T15:40:15.470Z,23.90
2022-10-23T15:42:45.417Z,23.90
2022-10-23T15:45:15.662Z,23.90
2022-10-23T15:47:45.860Z,23.80
2022-10-23T15:50:15.958Z,23.80
2022-10-23T15:52:47.390Z,23.80
2022-10-23T15:55:17.560Z,23.80
2022-10-23T15:57:47.828Z,23.80
2022-10-23T16:00:20.571Z,23.80
2022-10-23T16:02:50.387Z,23.80
2022-10-23T16:05:20.139Z,23.80
2022-10-23T16:07:51.177Z,23.80
2022-10-23T16:10:21.246Z,23.80
2022-10-23T16:12:51.095Z,23.80
2022-10-23T16:15:21.312Z,23.80
2022-10-23T16:17:51.667Z,23.70
2022-10-23T16:20:21.261Z,23.70
2022-10-23T16:22:52.630Z,23.70
2022-10-23T16:25:22.966Z,23.70
2022-10-23T16:27:53.013Z,23.70
2022-10-23T16:30:24.310Z,23.60
2022-10-23T16:32:55.043Z,23.70
2022-10-23T16:35:25.560Z,23.70
2022-10-23T16:38:09.451Z,23.60
2022-10-23T16:40:39.141Z,23.70
2022-10-23T16:43:40.802Z,23.60
2022-10-23T16:46:32.592Z,23.60
2022-10-23T16:49:03.020Z,23.60
2022-10-23T16:51:33.555Z,23.60
2022-10-23T16:54:04.806Z,23.60
2022-10-23T16:56:34.805Z,23.60
2022-10-23T16:59:05.704Z,23.60
2022-10-23T17:01:35.976Z,23.60
2022-10-23T17:04:08.531Z,23.60
2022-10-23T17:06:38.972Z,23.60
2022-10-23T17:09:10.423Z,23.40
2022-10-23T17:11:42.094Z,23.40
2022-10-23T17:14:17.544Z,23.50
2022-10-23T17:16:49.981Z,23.60
2022-10-23T17:19:43.689Z,23.50
2022-10-23T17:22:14.504Z,23.60
2022-10-23T17:24:48.916Z,23.60
2022-10-23T17:27:21.956Z,23.60
2022-10-23T17:29:52.178Z,23.60
2022-10-23T17:34:56.720Z,23.60
2022-10-23T17:37:26.518Z,23.70
2022-10-23T17:40:01.152Z,23.70
2022-10-23T17:42:31.234Z,23.60
2022-10-23T17:45:00.646Z,23.70
2022-10-23T17:47:30.654Z,23.70
2022-10-23T17:50:00.575Z,23.70
2022-10-23T17:52:30.523Z,23.70
2022-10-23T17:55:01.706Z,23.70
2022-10-23T17:57:31.624Z,23.70
2022-10-23T18:00:01.898Z,23.70
2022-10-23T18:02:41.697Z,23.60
2022-10-23T18:05:13.152Z,23.70
2022-10-23T18:07:43.680Z,23.60
2022-10-23T18:10:15.225Z,23.60
2022-10-23T18:12:45.061Z,23.50
2022-10-23T18:15:15.906Z,23.40
2022-10-23T18:17:46.695Z,23.30
2022-10-23T18:20:17.611Z,23.30
2022-10-23T18:22:47.693Z,23.20
2022-10-23T18:25:19.107Z,23.10
2022-10-23T18:27:49.186Z,23.10
2022-10-23T18:30:19.254Z,23.10
2022-10-23T18:32:49.573Z,23.00
2022-10-23T18:35:19.960Z,23.00
2022-10-23T18:37:49.843Z,23.00
2022-10-23T18:40:24.283Z,23.00
2022-10-23T18:42:57.188Z,23.00
2022-10-23T18:45:27.329Z,22.90
2022-10-23T18:47:57.350Z,22.90
2022-10-23T18:50:27.494Z,22.90
2022-10-23T18:52:58.186Z,22.90
2022-10-23T18:55:29.540Z,22.90
2022-10-23T18:58:00.322Z,22.90
2022-10-23T19:00:30.481Z,22.90
2022-10-23T19:03:00.483Z,22.90
2022-10-23T19:05:30.363Z,22.80
2022-10-23T19:08:02.029Z,22.90
2022-10-23T19:10:35.040Z,22.80
2022-10-23T19:13:05.540Z,22.80
2022-10-23T19:15:37.266Z,22.80
2022-10-23T19:18:09.127Z,22.80
2022-10-23T19:20:39.812Z,22.70
2022-10-23T19:23:12.716Z,22.70
2022-10-23T19:25:48.421Z,22.70
2022-10-23T19:28:18.221Z,22.70
2022-10-23T19:30:48.296Z,22.70
2022-10-23T19:33:19.067Z,22.70
2022-10-23T19:35:49.067Z,22.70
2022-10-23T19:38:19.010Z,22.70
2022-10-23T19:40:50.564Z,22.60
2022-10-23T19:43:20.526Z,22.60
2022-10-23T19:45:50.607Z,22.60
2022-10-23T19:48:20.660Z,22.60
2022-10-23T19:50:50.713Z,22.60
2022-10-23T19:53:20.922Z,22.60
2022-10-23T19:55:52.575Z,22.50
2022-10-23T19:58:22.422Z,22.60
2022-10-23T20:00:52.368Z,22.50
2022-10-23T20:03:41.367Z,22.60
2022-10-23T20:06:34.612Z,22.50
2022-10-23T20:09:23.068Z,22.40
2022-10-23T20:12:12.904Z,22.40
2022-10-23T20:15:01.550Z,22.40
2022-10-23T20:17:49.705Z,22.40
2022-10-23T20:20:42.564Z,22.40
2022-10-23T20:23:31.169Z,22.30
2022-10-23T20:26:22.521Z,22.30
2022-10-23T20:29:13.127Z,22.30
2022-10-23T20:32:01.534Z,22.30
2022-10-23T20:34:50.051Z,22.20
2022-10-23T20:37:38.425Z,22.30
2022-10-23T20:40:26.462Z,22.20
2022-10-23T20:43:14.611Z,22.20
2022-10-23T20:46:07.846Z,22.20
2022-10-23T20:48:56.344Z,22.10
2022-10-23T20:51:44.968Z,22.10
2022-10-23T20:54:33.243Z,22.10
2022-10-23T20:57:21.572Z,22.10
2022-10-23T21:00:12.014Z,22.10
2022-10-23T21:03:04.212Z,22.00
2022-10-23T21:05:52.434Z,22.00
2022-10-23T21:08:42.120Z,22.00
2022-10-23T21:11:31.391Z,22.00
2022-10-23T21:14:20.027Z,22.00
2022-10-23T21:17:10.882Z,22.00
2022-10-23T21:20:00.313Z,22.00
2022-10-23T21:22:48.946Z,21.90
2022-10-23T21:25:40.582Z,22.00
2022-10-23T21:28:28.716Z,21.90
2022-10-23T21:31:16.930Z,21.90
2022-10-23T21:34:05.957Z,21.90
2022-10-23T21:40:03.853Z,21.90
2022-10-23T21:42:52.256Z,21.80
2022-10-23T21:45:40.851Z,21.80
2022-10-23T21:48:30.287Z,21.80
2022-10-23T21:51:23.829Z,21.80
2022-10-23T21:54:16.138Z,21.80
2022-10-23T21:57:04.366Z,21.80
2022-10-23T21:59:52.509Z,21.80
2022-10-23T22:02:40.751Z,21.80
2022-10-23T22:05:28.929Z,21.70
2022-10-23T22:08:17.126Z,21.70
2022-10-23T22:11:08.388Z,21.70
2022-10-23T22:13:56.419Z,21.70
2022-10-23T22:16:44.907Z,21.70
2022-10-23T22:19:33.453Z,21.70
2022-10-23T22:22:21.521Z,21.70
2022-10-23T22:25:10.436Z,21.70
2022-10-23T22:27:59.674Z,21.70
2022-10-23T22:30:48.138Z,21.70
2022-10-23T22:33:36.379Z,21.70
2022-10-23T22:36:25.464Z,21.70
2022-10-23T22:39:13.719Z,21.60
2022-10-23T22:42:01.949Z,21.60
2022-10-23T22:44:51.788Z,21.60
2022-10-23T22:47:40.119Z,21.50
2022-10-23T22:50:28.402Z,21.60
2022-10-23T22:53:16.831Z,21.50
2022-10-23T22:56:08.685Z,21.50
2022-10-23T22:58:58.095Z,21.50
2022-10-23T23:01:49.347Z,21.50
2022-10-23T23:04:38.593Z,21.50
2022-10-23T23:07:27.391Z,21.50
2022-10-23T23:10:15.645Z,21.50
2022-10-23T23:13:03.635Z,21.40
2022-10-23T23:15:52.181Z,21.40
2022-10-23T23:18:41.765Z,21.40
2022-10-23T23:21:30.953Z,21.40
2022-10-23T23:24:19.128Z,21.40
2022-10-23T23:27:07.012Z,21.30
2022-10-23T23:29:57.920Z,21.30
2022-10-23T23:32:48.535Z,21.30
2022-10-23T23:35:41.347Z,21.30
2022-10-23T23:38:29.359Z,21.30
2022-10-23T23:41:19.500Z,21.20
2022-10-23T23:44:08.540Z,21.20
2022-10-23T23:46:56.901Z,21.20
2022-10-23T23:49:44.801Z,21.20
2022-10-23T23:52:34.422Z,21.20
2022-10-23T23:55:22.505Z,21.20
2022-10-23T23:58:11.463Z,21.20
